Time;durP1;ratioP1;P1;durP2;ratioP2;P2;SDS_P1;SDS_P2;PMS_P1;PMS_P2;Temp;Humidity;BMP_temperature;BMP_pressure;BME280_temperature;BME280_humidity;BME280_pressure;Samples;Min_cycle;Max_cycle;Signal;HPM_P1;HPM_P2
2023/04/08 00:00:02;;;;;;;;;;;;;;;21.94;25.17;98239.91;5097281;28;988;-74
2023/04/08 00:02:35;;;;;;;;;;;;;;;21.63;25.77;98245.09;5107948;28;1458;-74
2023/04/08 00:05:01;;;;;;;;;;;;;;;21.71;25.49;98242.88;5076960;28;1032;-74
2023/04/08 00:07:26;;;;;;;;;;;;;;;21.78;25.43;98235.00;5093939;28;965;-74
2023/04/08 00:09:52;;;;;;;;;;;;;;;22.06;25.26;98238.38;5060152;28;1052;-74
2023/04/08 00:12:18;;;;;;;;;;;;;;;22.36;24.77;98232.38;5090444;28;1913;-74
2023/04/08 00:14:43;;;;;;;;;;;;;;;22.03;24.80;98225.13;5076865;28;1242;-73
2023/04/08 00:17:09;;;;;;;;;;;;;;;21.88;25.19;98233.16;5094002;28;1009;-74
2023/04/08 00:19:35;;;;;;;;;;;;;;;21.76;25.34;98226.19;5077223;28;1242;-74
2023/04/08 00:22:00;;;;;;;;;;;;;;;21.85;25.66;98234.03;5076290;28;1418;-74
2023/04/08 00:24:26;;;;;;;;;;;;;;;22.20;24.98;98232.41;5076645;28;1048;-74
2023/04/08 00:26:51;;;;;;;;;;;;;;;22.45;24.57;98236.63;5075655;28;974;-74
2023/04/08 00:29:17;;;;;;;;;;;;;;;21.76;25.38;98231.00;5063465;28;956;-74
2023/04/08 00:31:42;;;;;;;;;;;;;;;21.67;25.58;98240.13;5054506;28;1225;-73
2023/04/08 00:34:08;;;;;;;;;;;;;;;21.59;25.87;98233.03;5054427;28;1971;-74
2023/04/08 00:36:35;;;;;;;;;;;;;;;22.15;24.76;98212.31;5070696;28;1347;-74
2023/04/08 00:39:00;;;;;;;;;;;;;;;22.30;24.98;98224.88;5071129;28;1219;-74
2023/04/08 00:41:26;;;;;;;;;;;;;;;22.36;24.62;98228.75;5055724;28;843;-74
2023/04/08 00:43:51;;;;;;;;;;;;;;;22.09;24.74;98234.69;5054560;28;1499;-74
2023/04/08 00:46:17;;;;;;;;;;;;;;;21.48;25.69;98232.47;5054464;28;919;-74
2023/04/08 00:48:43;;;;;;;;;;;;;;;21.53;25.80;98234.78;5071041;28;899;-74
2023/04/08 00:51:09;;;;;;;;;;;;;;;22.08;25.02;98231.06;5054523;28;928;-74
2023/04/08 00:53:34;;;;;;;;;;;;;;;22.34;24.63;98232.03;5072139;28;2013;-74
2023/04/08 00:56:00;;;;;;;;;;;;;;;22.10;24.98;98224.94;5074370;28;1350;-74
2023/04/08 00:58:26;;;;;;;;;;;;;;;21.63;25.49;98230.91;5074172;28;1448;-74
2023/04/08 01:00:54;;;;;;;;;;;;;;;21.70;25.68;98233.56;5106375;28;1418;-74
2023/04/08 01:03:28;;;;;;;;;;;;;;;21.19;26.14;98227.44;5090923;28;1165;-74
2023/04/08 01:06:26;;;;;;;;;;;;;;;21.89;25.47;98233.97;5108325;28;931;-74
2023/04/08 01:08:52;;;;;;;;;;;;;;;22.26;24.83;98230.63;5076164;28;1229;-74
2023/04/08 01:11:18;;;;;;;;;;;;;;;22.25;25.07;98228.25;5091995;28;1455;-74
2023/04/08 01:13:44;;;;;;;;;;;;;;;21.63;25.49;98228.09;5076036;28;1972;-74
2023/04/08 01:16:11;;;;;;;;;;;;;;;21.41;25.81;98230.63;5043053;28;1241;-74
2023/04/08 01:18:37;;;;;;;;;;;;;;;21.54;25.97;98230.72;5075976;28;1037;-74
2023/04/08 01:21:02;;;;;;;;;;;;;;;22.10;25.13;98233.44;5076556;28;1283;-74
2023/04/08 01:23:28;;;;;;;;;;;;;;;22.19;25.01;98235.69;5076313;28;919;-75
2023/04/08 01:25:54;;;;;;;;;;;;;;;22.40;24.75;98234.34;5092421;28;1590;-73
2023/04/08 01:28:20;;;;;;;;;;;;;;;22.22;25.00;98224.25;5072466;28;960;-74
2023/04/08 01:30:46;;;;;;;;;;;;;;;22.21;24.70;98234.00;5072474;28;959;-74
2023/04/08 01:33:12;;;;;;;;;;;;;;;21.60;25.61;98231.78;5072629;28;1973;-75
2023/04/08 01:35:38;;;;;;;;;;;;;;;21.55;25.56;98232.31;5072535;28;948;-74
2023/04/08 01:38:04;;;;;;;;;;;;;;;21.76;25.78;98228.19;5073198;28;1247;-74
2023/04/08 01:40:30;;;;;;;;;;;;;;;21.73;25.60;98226.25;5066560;28;1381;-75
2023/04/08 01:42:55;;;;;;;;;;;;;;;21.65;25.63;98224.81;5039887;28;906;-74
2023/04/08 01:45:21;;;;;;;;;;;;;;;21.62;25.57;98222.88;5008309;28;1106;-75
2023/04/08 01:47:47;;;;;;;;;;;;;;;22.14;25.04;98227.72;5036321;28;1430;-74
2023/04/08 01:50:13;;;;;;;;;;;;;;;22.29;24.97;98229.75;5036521;28;1258;-74
2023/04/08 01:52:40;;;;;;;;;;;;;;;21.87;25.55;98220.25;5036224;28;1914;-74
2023/04/08 01:55:06;;;;;;;;;;;;;;;22.14;24.90;98220.00;5043617;28;1462;-74
2023/04/08 01:57:32;;;;;;;;;;;;;;;21.73;25.37;98215.72;5039686;28;1262;-74
2023/04/08 02:00:08;;;;;;;;;;;;;;;21.73;25.44;98209.25;5022956;28;1059;-73
2023/04/08 02:02:46;;;;;;;;;;;;;;;22.07;24.86;98206.78;5041007;28;913;-74
2023/04/08 02:05:12;;;;;;;;;;;;;;;22.12;25.00;98218.84;5037823;28;1199;-74
2023/04/08 02:07:38;;;;;;;;;;;;;;;21.99;25.34;98218.75;5052455;28;1220;-74
2023/04/08 02:10:04;;;;;;;;;;;;;;;21.63;25.56;98221.63;5061015;28;1315;-74
2023/04/08 02:12:29;;;;;;;;;;;;;;;21.71;25.59;98221.03;5022516;28;1972;-74
2023/04/08 02:14:56;;;;;;;;;;;;;;;21.45;25.62;98219.19;5022697;28;1199;-74
2023/04/08 02:17:22;;;;;;;;;;;;;;;21.64;25.62;98224.00;5022614;28;1114;-74
2023/04/08 02:19:48;;;;;;;;;;;;;;;22.21;24.73;98231.16;5055701;28;1294;-75
2023/04/08 02:22:18;;;;;;;;;;;;;;;22.23;24.95;98230.72;5038917;28;933;-74
2023/04/08 02:24:44;;;;;;;;;;;;;;;22.22;24.74;98229.91;5037935;28;1463;-74
2023/04/08 02:27:11;;;;;;;;;;;;;;;21.63;25.47;98239.41;5035429;28;1539;-75
2023/04/08 02:29:37;;;;;;;;;;;;;;;21.57;25.77;98232.69;5035442;28;950;-74
2023/04/08 02:32:03;;;;;;;;;;;;;;;21.73;25.65;98238.38;5018983;28;1182;-75
2023/04/08 02:34:29;;;;;;;;;;;;;;;21.83;25.47;98240.16;5035485;28;1902;-74
2023/04/08 02:36:54;;;;;;;;;;;;;;;22.05;25.13;98243.25;5038871;28;1004;-74
2023/04/08 02:39:20;;;;;;;;;;;;;;;22.11;24.86;98232.22;5057121;28;1460;-74
2023/04/08 02:41:48;;;;;;;;;;;;;;;22.09;25.08;98241.16;5042191;28;1107;-74
2023/04/08 02:44:13;;;;;;;;;;;;;;;21.56;25.63;98236.75;5041842;28;1128;-74
2023/04/08 02:46:39;;;;;;;;;;;;;;;21.50;25.77;98239.31;5033685;28;1483;-74
2023/04/08 02:49:05;;;;;;;;;;;;;;;21.45;25.83;98239.00;5002289;28;1146;-74
2023/04/08 02:51:32;;;;;;;;;;;;;;;21.83;25.40;98245.03;4996912;28;1552;-74
2023/04/08 02:53:57;;;;;;;;;;;;;;;22.02;25.19;98244.16;5015282;28;1906;-75
2023/04/08 02:56:23;;;;;;;;;;;;;;;21.94;25.18;98241.94;5015007;28;1226;-74
2023/04/08 02:58:50;;;;;;;;;;;;;;;21.92;25.06;98239.56;5015265;28;962;-73
2023/04/08 03:01:16;;;;;;;;;;;;;;;21.71;25.66;98245.69;5014965;28;921;-74
2023/04/08 03:03:42;;;;;;;;;;;;;;;21.57;25.65;98241.19;5017479;28;999;-74
2023/04/08 03:06:07;;;;;;;;;;;;;;;21.44;25.58;98248.75;5035061;28;982;-74
2023/04/08 03:08:33;;;;;;;;;;;;;;;22.18;24.89;98257.56;5017707;28;1467;-73
2023/04/08 03:10:58;;;;;;;;;;;;;;;21.97;25.09;98250.38;5018522;28;1168;-74
2023/04/08 03:13:24;;;;;;;;;;;;;;;22.03;25.41;98259.91;5018111;28;1911;-74
2023/04/08 03:15:50;;;;;;;;;;;;;;;21.82;25.24;98252.72;5034721;28;1456;-74
2023/04/08 03:18:16;;;;;;;;;;;;;;;21.92;25.14;98258.59;5051090;28;961;-74
2023/04/08 03:20:42;;;;;;;;;;;;;;;21.56;25.83;98263.03;5071400;28;1075;-74
2023/04/08 03:23:07;;;;;;;;;;;;;;;21.83;25.46;98270.53;5055464;28;976;-74
2023/04/08 03:25:33;;;;;;;;;;;;;;;21.83;25.53;98262.81;5053511;28;1417;-74
2023/04/08 03:27:58;;;;;;;;;;;;;;;21.88;25.42;98269.22;5037576;28;1081;-75
2023/04/08 03:30:24;;;;;;;;;;;;;;;21.78;25.44;98259.72;5037826;28;973;-74
2023/04/08 03:32:50;;;;;;;;;;;;;;;21.71;25.46;98262.69;5037941;28;1999;-74
2023/04/08 03:35:15;;;;;;;;;;;;;;;21.51;25.81;98259.94;5021172;28;970;-73
2023/04/08 03:37:41;;;;;;;;;;;;;;;21.37;26.37;98260.22;5037469;28;948;-74
2023/04/08 03:40:07;;;;;;;;;;;;;;;21.87;25.53;98264.78;5020396;28;1425;-74
2023/04/08 03:42:33;;;;;;;;;;;;;;;21.75;25.71;98269.06;5053876;28;1049;-74
2023/04/08 03:44:59;;;;;;;;;;;;;;;21.88;25.69;98272.03;5037228;28;1214;-74
2023/04/08 03:47:25;;;;;;;;;;;;;;;22.12;24.92;98281.97;5037392;28;919;-73
2023/04/08 03:49:53;;;;;;;;;;;;;;;21.99;24.96;98283.91;5037391;28;1014;-74
2023/04/08 03:52:19;;;;;;;;;;;;;;;21.53;25.64;98280.09;5053789;28;950;-75
2023/04/08 03:54:44;;;;;;;;;;;;;;;21.69;25.32;98288.63;5053791;28;1914;-74
2023/04/08 03:57:11;;;;;;;;;;;;;;;22.02;25.16;98288.69;5054326;28;870;-73
2023/04/08 03:59:38;;;;;;;;;;;;;;;21.82;25.57;98286.72;5055157;28;1082;-74
2023/04/08 04:02:04;;;;;;;;;;;;;;;21.92;25.49;98290.56;5038174;28;1493;-74
2023/04/08 04:04:30;;;;;;;;;;;;;;;21.85;25.50;98285.81;5038363;28;1157;-73
2023/04/08 04:06:55;;;;;;;;;;;;;;;21.55;25.55;98288.94;5056098;28;902;-75
2023/04/08 04:09:21;;;;;;;;;;;;;;;21.61;25.49;98287.22;5070395;28;1025;-74
2023/04/08 04:11:46;;;;;;;;;;;;;;;21.26;25.93;98295.19;5055072;28;1080;-74
2023/04/08 04:14:12;;;;;;;;;;;;;;;21.74;25.53;98292.97;5055790;28;1906;-74
2023/04/08 04:16:37;;;;;;;;;;;;;;;22.12;25.06;98301.81;5054953;28;1101;-74
2023/04/08 04:19:03;;;;;;;;;;;;;;;22.12;25.29;98304.66;5054991;28;1248;-74
2023/04/08 04:21:29;;;;;;;;;;;;;;;21.98;25.37;98299.31;5054503;28;985;-74
2023/04/08 04:23:54;;;;;;;;;;;;;;;21.65;25.73;98296.41;5054536;28;1229;-74
2023/04/08 04:26:20;;;;;;;;;;;;;;;21.63;25.65;98296.06;5055652;28;864;-74
2023/04/08 04:28:45;;;;;;;;;;;;;;;21.79;25.65;98304.59;5071637;28;884;-74
2023/04/08 04:31:18;;;;;;;;;;;;;;;22.29;24.92;98306.28;5054650;28;1017;-73
2023/04/08 04:33:44;;;;;;;;;;;;;;;22.14;25.29;98307.88;5054237;28;1906;-73
2023/04/08 04:36:09;;;;;;;;;;;;;;;21.92;25.44;98306.75;5055667;28;907;-74
2023/04/08 04:38:35;;;;;;;;;;;;;;;21.59;25.60;98312.31;5055549;28;920;-74
2023/04/08 04:41:01;;;;;;;;;;;;;;;21.75;25.44;98303.06;5054588;28;1133;-74
2023/04/08 04:43:27;;;;;;;;;;;;;;;21.90;25.74;98303.53;5054486;28;1169;-74
2023/04/08 04:45:52;;;;;;;;;;;;;;;22.07;25.42;98307.97;5054403;28;1212;-74
2023/04/08 04:48:18;;;;;;;;;;;;;;;22.18;25.12;98305.75;5070875;28;923;-74
2023/04/08 04:50:43;;;;;;;;;;;;;;;22.22;25.08;98311.31;5054179;28;1152;-74
2023/04/08 04:53:09;;;;;;;;;;;;;;;21.96;25.49;98313.09;5056081;28;1902;-74
2023/04/08 04:55:35;;;;;;;;;;;;;;;21.51;25.90;98310.88;5032911;28;1154;-74
2023/04/08 04:58:00;;;;;;;;;;;;;;;21.98;25.43;98316.31;5033141;28;931;-73
2023/04/08 05:00:26;;;;;;;;;;;;;;;22.09;25.21;98311.19;5032737;28;981;-75
2023/04/08 05:02:52;;;;;;;;;;;;;;;22.15;25.49;98325.66;5032956;28;1020;-74
2023/04/08 05:05:17;;;;;;;;;;;;;;;21.92;25.34;98318.88;5033422;28;1008;-74
2023/04/08 05:07:43;;;;;;;;;;;;;;;21.72;25.54;98318.13;5032766;28;1065;-74
2023/04/08 05:10:09;;;;;;;;;;;;;;;21.63;25.61;98320.75;5033021;28;1213;-74
2023/04/08 05:12:37;;;;;;;;;;;;;;;21.68;25.73;98321.03;5033566;28;1894;-75
2023/04/08 05:15:03;;;;;;;;;;;;;;;22.23;25.37;98327.91;5037332;28;954;-74
2023/04/08 05:17:28;;;;;;;;;;;;;;;22.04;25.36;98325.88;5053510;28;988;-73
2023/04/08 05:19:54;;;;;;;;;;;;;;;22.22;25.09;98326.28;5053509;28;993;-74
2023/04/08 05:22:19;;;;;;;;;;;;;;;21.68;26.01;98321.03;5036691;28;886;-75
2023/04/08 05:24:45;;;;;;;;;;;;;;;21.76;25.54;98322.47;5053692;28;1423;-74
2023/04/08 05:27:11;;;;;;;;;;;;;;;21.61;25.76;98332.53;5064621;28;1090;-73
2023/04/08 05:29:36;;;;;;;;;;;;;;;22.12;25.29;98320.88;5059169;28;854;-74
2023/04/08 05:32:02;;;;;;;;;;;;;;;21.83;25.67;98322.31;5058865;28;922;-74
2023/04/08 05:34:27;;;;;;;;;;;;;;;22.02;25.44;98323.50;5074353;28;1894;-75
2023/04/08 05:36:53;;;;;;;;;;;;;;;21.91;25.61;98316.47;5073018;28;885;-74
2023/04/08 05:39:19;;;;;;;;;;;;;;;21.78;25.70;98314.31;5057795;28;1478;-74
2023/04/08 05:41:44;;;;;;;;;;;;;;;21.42;26.17;98324.81;5074055;28;968;-73
2023/04/08 05:44:10;;;;;;;;;;;;;;;21.41;26.50;98326.88;5058405;28;951;-75
2023/04/08 05:46:39;;;;;;;;;;;;;;;21.98;25.84;98327.66;5040997;28;1201;-74
2023/04/08 05:49:04;;;;;;;;;;;;;;;22.10;25.32;98326.94;5074090;28;782;-73
2023/04/08 05:51:30;;;;;;;;;;;;;;;22.15;25.37;98332.13;5074218;28;925;-74
2023/04/08 05:53:56;;;;;;;;;;;;;;;21.89;25.58;98324.63;5035938;28;1977;-73
2023/04/08 05:56:21;;;;;;;;;;;;;;;21.39;26.28;98329.31;5019411;28;1018;-74
2023/04/08 05:58:47;;;;;;;;;;;;;;;21.37;26.24;98319.66;5019787;28;1324;-74
2023/04/08 06:01:12;;;;;;;;;;;;;;;21.78;26.09;98322.81;5039399;28;1005;-74
2023/04/08 06:03:38;;;;;;;;;;;;;;;22.08;25.33;98326.59;5056084;28;1017;-74
2023/04/08 06:06:08;;;;;;;;;;;;;;;22.07;25.35;98325.00;5039546;28;992;-75
2023/04/08 06:08:34;;;;;;;;;;;;;;;21.85;25.83;98322.66;5039506;28;1000;-74
2023/04/08 06:10:59;;;;;;;;;;;;;;;21.53;25.92;98331.06;5039850;28;1171;-73
2023/04/08 06:13:25;;;;;;;;;;;;;;;21.51;25.98;98327.88;5039085;28;1902;-74
2023/04/08 06:15:51;;;;;;;;;;;;;;;21.45;26.56;98332.44;5019126;28;963;-73
2023/04/08 06:18:16;;;;;;;;;;;;;;;21.91;25.72;98330.63;5019452;28;1019;-73
2023/04/08 06:20:42;;;;;;;;;;;;;;;21.77;25.99;98334.59;5019228;28;1179;-74
2023/04/08 06:23:07;;;;;;;;;;;;;;;21.83;25.90;98333.63;5035591;28;1109;-74
2023/04/08 06:25:33;;;;;;;;;;;;;;;21.88;25.71;98332.31;5046085;28;1237;-75
2023/04/08 06:27:59;;;;;;;;;;;;;;;21.77;26.00;98334.59;5019082;28;1122;-74
2023/04/08 06:30:24;;;;;;;;;;;;;;;21.73;26.04;98334.66;5052245;28;955;-74
2023/04/08 06:32:50;;;;;;;;;;;;;;;21.42;26.27;98324.81;5035547;28;1961;-73
2023/04/08 06:35:15;;;;;;;;;;;;;;;21.43;26.14;98327.22;5035386;28;1003;-74
2023/04/08 06:37:41;;;;;;;;;;;;;;;21.91;25.98;98327.78;5052215;28;960;-74
2023/04/08 06:40:07;;;;;;;;;;;;;;;21.90;25.66;98326.22;5035256;28;1217;-75
2023/04/08 06:42:32;;;;;;;;;;;;;;;22.08;25.38;98326.59;5052078;28;914;-74
2023/04/08 06:45:17;;;;;;;;;;;;;;;21.97;25.64;98355.19;5032761;28;1066;-74
2023/04/08 06:47:43;;;;;;;;;;;;;;;21.92;25.63;98326.59;5053393;28;1242;-73
2023/04/08 06:50:08;;;;;;;;;;;;;;;21.64;26.04;98325.16;5075327;28;1021;-73
2023/04/08 06:52:34;;;;;;;;;;;;;;;21.67;25.75;98335.63;5075234;28;1914;-74
2023/04/08 06:55:00;;;;;;;;;;;;;;;21.47;26.02;98335.63;5075079;28;1098;-74
2023/04/08 06:57:25;;;;;;;;;;;;;;;21.94;25.71;98338.25;5076950;28;857;-73
2023/04/08 06:59:52;;;;;;;;;;;;;;;21.83;25.95;98332.84;5077219;28;909;-74
2023/04/08 07:02:18;;;;;;;;;;;;;;;21.98;25.88;98339.00;5077436;28;835;-74
2023/04/08 07:04:43;;;;;;;;;;;;;;;22.06;25.55;98334.72;5077282;28;913;-74
2023/04/08 07:07:09;;;;;;;;;;;;;;;21.86;25.72;98343.28;5078031;28;980;-73
2023/04/08 07:09:35;;;;;;;;;;;;;;;21.53;26.04;98343.19;5077984;28;1259;-74
2023/04/08 07:12:03;;;;;;;;;;;;;;;21.44;26.14;98351.44;5094983;28;998;-74
2023/04/08 07:14:28;;;;;;;;;;;;;;;21.91;25.90;98347.63;5078234;28;1983;-74
2023/04/08 07:16:55;;;;;;;;;;;;;;;22.07;25.57;98345.66;5078221;28;1021;-74
2023/04/08 07:19:21;;;;;;;;;;;;;;;22.10;25.42;98341.13;5061223;28;1094;-74
2023/04/08 07:21:47;;;;;;;;;;;;;;;21.84;25.75;98352.22;5037937;28;1017;-74
2023/04/08 07:24:12;;;;;;;;;;;;;;;21.64;26.08;98347.81;5037941;28;993;-74
2023/04/08 07:26:38;;;;;;;;;;;;;;;21.39;26.68;98360.44;5054567;28;1031;-74
2023/04/08 07:29:04;;;;;;;;;;;;;;;21.74;26.23;98353.25;5017746;28;1131;-74
2023/04/08 07:31:30;;;;;;;;;;;;;;;21.99;25.72;98361.22;5017918;28;987;-74
2023/04/08 07:33:55;;;;;;;;;;;;;;;22.24;25.52;98357.84;5001484;28;1921;-74
2023/04/08 07:36:21;;;;;;;;;;;;;;;22.06;26.00;98352.53;5017398;28;971;-73
2023/04/08 07:38:47;;;;;;;;;;;;;;;21.64;26.15;98359.94;5017831;28;996;-75
2023/04/08 07:41:12;;;;;;;;;;;;;;;21.40;26.74;98355.59;5034089;28;1010;-73
2023/04/08 07:43:38;;;;;;;;;;;;;;;21.35;26.40;98359.75;4999341;28;896;-74
2023/04/08 07:46:04;;;;;;;;;;;;;;;22.00;25.94;98359.97;4998197;28;1290;-73
2023/04/08 07:48:30;;;;;;;;;;;;;;;22.10;25.66;98353.28;4997840;28;1004;-73
2023/04/08 07:50:55;;;;;;;;;;;;;;;22.08;25.71;98357.78;4997967;28;1148;-74
2023/04/08 07:53:23;;;;;;;;;;;;;;;22.00;25.64;98362.78;5032276;28;1902;-73
2023/04/08 07:55:48;;;;;;;;;;;;;;;21.82;26.14;98368.88;5053963;28;1004;-74
2023/04/08 07:58:14;;;;;;;;;;;;;;;21.50;26.65;98360.22;5037270;28;1374;-74
2023/04/08 08:00:39;;;;;;;;;;;;;;;21.55;26.60;98363.38;5037093;28;945;-74
2023/04/08 08:03:05;;;;;;;;;;;;;;;22.29;25.67;98360.16;5053935;28;985;-73
2023/04/08 08:05:30;;;;;;;;;;;;;;;22.09;25.68;98365.03;5023007;28;1447;-74
2023/04/08 08:07:56;;;;;;;;;;;;;;;22.06;25.53;98358.19;5058313;28;1317;-74
2023/04/08 08:10:22;;;;;;;;;;;;;;;21.78;25.95;98359.66;5074828;28;1454;-73
2023/04/08 08:12:47;;;;;;;;;;;;;;;21.66;26.05;98368.81;5074650;28;1977;-74
2023/04/08 08:15:14;;;;;;;;;;;;;;;21.94;26.11;98372.25;5075305;28;1038;-73
2023/04/08 08:17:40;;;;;;;;;;;;;;;21.97;26.11;98369.34;5075261;28;946;-73
2023/04/08 08:20:06;;;;;;;;;;;;;;;21.77;26.10;98368.59;5075004;28;1230;-73
2023/04/08 08:22:31;;;;;;;;;;;;;;;21.94;25.99;98367.38;5075313;28;1033;-73
2023/04/08 08:24:57;;;;;;;;;;;;;;;21.74;26.07;98373.06;5040792;28;986;-73
2023/04/08 08:27:23;;;;;;;;;;;;;;;21.41;26.32;98374.19;5058161;28;1625;-73
2023/04/08 08:29:48;;;;;;;;;;;;;;;21.57;26.10;98382.75;5058067;28;980;-73
2023/04/08 08:32:14;;;;;;;;;;;;;;;21.67;26.40;98364.75;5093506;28;942;-72
2023/04/08 08:34:39;;;;;;;;;;;;;;;21.99;25.97;98380.25;5077052;28;1910;-74
2023/04/08 08:37:05;;;;;;;;;;;;;;;21.90;26.01;98374.38;5093938;28;916;-73
2023/04/08 08:39:30;;;;;;;;;;;;;;;22.17;25.62;98380.66;5060313;28;1485;-73
2023/04/08 08:41:56;;;;;;;;;;;;;;;21.89;25.77;98386.94;5076684;28;974;-73
2023/04/08 08:44:22;;;;;;;;;;;;;;;21.64;26.29;98384.63;5036547;28;1619;-74
2023/04/08 08:46:47;;;;;;;;;;;;;;;21.72;25.73;98388.94;5053625;28;1168;-73
2023/04/08 08:49:13;;;;;;;;;;;;;;;21.37;26.63;98384.78;5019293;28;1211;-74
2023/04/08 08:51:39;;;;;;;;;;;;;;;21.62;26.60;98387.91;5033150;28;1033;-73
2023/04/08 08:54:04;;;;;;;;;;;;;;;22.11;25.61;98399.41;4993927;28;1906;-73
2023/04/08 08:56:31;;;;;;;;;;;;;;;22.11;25.91;98393.75;4977878;28;1181;-73
2023/04/08 08:58:57;;;;;;;;;;;;;;;22.49;25.27;98401.81;4993855;28;1004;-73
2023/04/08 09:01:30;;;;;;;;;;;;;;;21.88;26.19;98396.69;4994171;28;1451;-73
2023/04/08 09:04:08;;;;;;;;;;;;;;;22.03;25.90;98395.13;4978515;28;973;-73
2023/04/08 09:06:33;;;;;;;;;;;;;;;21.41;26.85;98402.50;4974481;28;990;-74
2023/04/08 09:09:00;;;;;;;;;;;;;;;21.78;26.29;98399.31;4958242;28;940;-75
2023/04/08 09:11:25;;;;;;;;;;;;;;;21.95;25.86;98402.19;4993674;28;1332;-73
2023/04/08 09:13:51;;;;;;;;;;;;;;;21.87;26.02;98412.09;4977249;28;1911;-73
2023/04/08 09:16:17;;;;;;;;;;;;;;;22.02;25.81;98413.34;4978353;28;1141;-73
2023/04/08 09:18:44;;;;;;;;;;;;;;;22.00;25.75;98404.50;5013450;28;972;-73
2023/04/08 09:21:10;;;;;;;;;;;;;;;21.64;26.13;98407.28;5029534;28;1006;-73
2023/04/08 09:23:42;;;;;;;;;;;;;;;21.95;26.24;98410.69;5013255;28;1132;-73
2023/04/08 09:26:15;;;;;;;;;;;;;;;22.15;25.89;98405.03;5029344;28;946;-73
2023/04/08 09:28:41;;;;;;;;;;;;;;;22.14;25.79;98409.91;5013392;28;1023;-73
2023/04/08 09:31:22;;;;;;;;;;;;;;;22.40;25.44;98405.25;4997333;28;981;-73
2023/04/08 09:33:52;;;;;;;;;;;;;;;22.17;25.63;98402.53;5013796;28;1906;-73
2023/04/08 09:36:17;;;;;;;;;;;;;;;21.66;26.36;98408.47;5049567;28;906;-74
2023/04/08 09:38:43;;;;;;;;;;;;;;;21.55;26.56;98402.19;5049515;28;1066;-74
2023/04/08 09:41:11;;;;;;;;;;;;;;;21.38;26.55;98403.34;5049613;28;908;-74
2023/04/08 09:43:39;;;;;;;;;;;;;;;21.77;26.41;98397.72;5049267;28;1030;-74
2023/04/08 09:46:07;;;;;;;;;;;;;;;22.06;25.86;98402.75;5033435;28;971;-74
2023/04/08 09:48:34;;;;;;;;;;;;;;;22.11;25.92;98393.75;5069577;28;943;-74
2023/04/08 09:50:59;;;;;;;;;;;;;;;22.05;25.99;98389.81;5074132;28;930;-73
2023/04/08 09:53:29;;;;;;;;;;;;;;;21.75;26.29;98407.88;5072810;28;1980;-74
2023/04/08 09:55:56;;;;;;;;;;;;;;;21.61;26.20;98389.16;5056376;28;978;-74
2023/04/08 09:58:26;;;;;;;;;;;;;;;21.21;27.11;98406.06;5056176;28;990;-74
2023/04/08 10:00:52;;;;;;;;;;;;;;;21.83;26.27;98398.78;5043176;28;1003;-74
2023/04/08 10:03:20;;;;;;;;;;;;;;;22.03;26.08;98397.97;5043190;28;952;-74
2023/04/08 10:05:45;;;;;;;;;;;;;;;21.80;26.51;98401.69;5076168;28;952;-74
2023/04/08 10:08:11;;;;;;;;;;;;;;;21.89;26.21;98398.28;5059567;28;897;-75
2023/04/08 10:10:39;;;;;;;;;;;;;;;21.86;26.05;98394.25;5059749;28;1355;-75
2023/04/08 10:13:05;;;;;;;;;;;;;;;21.77;26.15;98392.03;5076046;28;1902;-74
2023/04/08 10:15:31;;;;;;;;;;;;;;;21.79;26.27;98385.94;5042100;28;1681;-74
2023/04/08 10:18:05;;;;;;;;;;;;;;;21.37;26.97;98384.78;5059159;28;913;-74
2023/04/08 10:20:36;;;;;;;;;;;;;;;21.72;26.55;98386.09;5059482;28;1062;-74
2023/04/08 10:23:02;;;;;;;;;;;;;;;21.85;26.15;98387.81;5059477;28;1922;-74
2023/04/08 10:25:31;;;;;;;;;;;;;;;21.95;25.93;98385.19;5041339;28;1274;-73
2023/04/08 10:27:57;;;;;;;;;;;;;;;21.99;25.91;98386.72;5057174;28;1066;-73
2023/04/08 10:30:26;;;;;;;;;;;;;;;21.94;26.06;98378.72;5074109;28;934;-73
2023/04/08 10:32:52;;;;;;;;;;;;;;;21.60;26.40;98376.19;5056834;28;1975;-74
2023/04/08 10:35:27;;;;;;;;;;;;;;;21.12;27.21;98386.00;5073553;28;1034;-74
2023/04/08 10:37:53;;;;;;;;;;;;;;;21.37;27.06;98384.78;5055803;28;977;-73
2023/04/08 10:40:19;;;;;;;;;;;;;;;22.08;25.93;98383.28;5075626;28;1245;-73
2023/04/08 10:42:44;;;;;;;;;;;;;;;21.80;26.02;98379.81;5075729;28;901;-74
2023/04/08 10:45:10;;;;;;;;;;;;;;;21.83;26.47;98384.63;5092379;28;1129;-74
2023/04/08 10:47:35;;;;;;;;;;;;;;;21.83;26.41;98384.63;5092566;28;1847;-74
2023/04/08 10:50:11;;;;;;;;;;;;;;;21.64;26.17;98384.63;5092464;28;1141;-73
2023/04/08 10:52:44;;;;;;;;;;;;;;;21.44;26.76;98387.47;5092482;28;1015;-74
2023/04/08 10:55:10;;;;;;;;;;;;;;;21.60;26.37;98390.34;5092227;28;957;-72
2023/04/08 10:57:36;;;;;;;;;;;;;;;21.52;26.67;98380.44;5092224;28;878;-73
2023/04/08 11:00:04;;;;;;;;;;;;;;;21.88;26.20;98385.34;5092071;28;1144;-72
2023/04/08 11:02:33;;;;;;;;;;;;;;;21.93;26.24;98382.00;5091766;28;991;-73
2023/04/08 11:04:58;;;;;;;;;;;;;;;21.89;26.14;98386.94;5091783;28;993;-73
2023/04/08 11:07:24;;;;;;;;;;;;;;;21.89;26.07;98386.94;5092256;28;981;-74
2023/04/08 11:09:50;;;;;;;;;;;;;;;21.69;26.33;98379.25;5094811;28;1149;-74
2023/04/08 11:12:18;;;;;;;;;;;;;;;21.38;26.78;98377.88;5077481;28;991;-74
2023/04/08 11:14:44;;;;;;;;;;;;;;;21.33;26.78;98374.31;5078763;28;1922;-74
2023/04/08 11:17:11;;;;;;;;;;;;;;;21.95;26.23;98382.34;5073044;28;1117;-73
2023/04/08 11:19:38;;;;;;;;;;;;;;;21.88;26.32;98379.69;5041686;28;1045;-74
2023/04/08 11:22:04;;;;;;;;;;;;;;;21.94;26.26;98375.09;5058635;28;925;-73
2023/04/08 11:24:29;;;;;;;;;;;;;;;21.98;25.87;98373.78;5041519;28;1126;-74
2023/04/08 11:26:55;;;;;;;;;;;;;;;21.87;26.12;98372.44;5041555;28;1111;-74
2023/04/08 11:29:21;;;;;;;;;;;;;;;21.35;26.86;98364.59;5041563;28;952;-74
2023/04/08 11:31:48;;;;;;;;;;;;;;;21.50;26.35;98354.56;5058324;28;900;-74
2023/04/08 11:34:20;;;;;;;;;;;;;;;21.79;26.29;98360.44;5041614;28;1918;-74
2023/04/08 11:36:46;;;;;;;;;;;;;;;21.75;26.24;98354.84;5057769;28;943;-74
2023/04/08 11:39:12;;;;;;;;;;;;;;;22.07;25.79;98353.31;5074711;28;945;-74
2023/04/08 11:41:38;;;;;;;;;;;;;;;21.94;26.14;98347.56;5057793;28;1302;-74
2023/04/08 11:44:05;;;;;;;;;;;;;;;21.95;26.00;98356.84;5041475;28;891;-74
2023/04/08 11:46:31;;;;;;;;;;;;;;;21.45;26.68;98355.06;5038603;28;1055;-74
2023/04/08 11:49:04;;;;;;;;;;;;;;;21.55;26.46;98349.22;5055573;28;1175;-74
2023/04/08 11:51:29;;;;;;;;;;;;;;;21.72;26.65;98344.41;5055798;28;880;-74
2023/04/08 11:53:55;;;;;;;;;;;;;;;21.90;26.01;98338.34;5070305;28;1901;-74
2023/04/08 11:56:22;;;;;;;;;;;;;;;21.76;26.21;98345.13;5054623;28;921;-74
2023/04/08 11:58:47;;;;;;;;;;;;;;;22.14;25.86;98347.53;5054008;28;1133;-74
2023/04/08 12:01:13;;;;;;;;;;;;;;;21.89;26.13;98335.94;5087537;28;1033;-75
2023/04/08 12:03:41;;;;;;;;;;;;;;;21.74;26.45;98330.59;5075648;28;1107;-75
2023/04/08 12:06:08;;;;;;;;;;;;;;;21.78;26.19;98336.97;5070630;28;1284;-74
2023/04/08 12:08:34;;;;;;;;;;;;;;;21.30;26.61;98338.41;5073609;28;1263;-74
2023/04/08 12:11:00;;;;;;;;;;;;;;;21.58;26.65;98336.22;5073067;28;1244;-74
2023/04/08 12:13:26;;;;;;;;;;;;;;;22.08;26.00;98337.94;5056528;28;1914;-74
2023/04/08 12:15:52;;;;;;;;;;;;;;;22.16;25.72;98339.38;5057133;28;1273;-74
2023/04/08 12:18:17;;;;;;;;;;;;;;;22.00;26.09;98337.28;5073249;28;1300;-75
2023/04/08 12:20:43;;;;;;;;;;;;;;;21.91;26.35;98339.94;5056743;28;1233;-74
2023/04/08 12:23:08;;;;;;;;;;;;;;;21.64;26.25;98337.28;5073220;28;1284;-74
2023/04/08 12:25:34;;;;;;;;;;;;;;;21.45;26.37;98329.59;5074571;28;1434;-75
2023/04/08 12:28:00;;;;;;;;;;;;;;;21.64;26.49;98325.97;5075105;28;970;-75
2023/04/08 12:30:25;;;;;;;;;;;;;;;22.01;26.13;98326.75;5074772;28;893;-74
2023/04/08 12:32:53;;;;;;;;;;;;;;;22.01;25.90;98323.91;5074936;28;1897;-74
2023/04/08 12:35:19;;;;;;;;;;;;;;;22.04;26.20;98325.88;5075716;28;921;-75
2023/04/08 12:37:45;;;;;;;;;;;;;;;21.94;25.91;98315.59;5074561;28;929;-74
2023/04/08 12:40:11;;;;;;;;;;;;;;;21.56;26.59;98310.38;5093727;28;955;-75
2023/04/08 12:42:36;;;;;;;;;;;;;;;21.17;27.35;98311.16;5093738;28;1117;-75
2023/04/08 12:45:02;;;;;;;;;;;;;;;21.31;27.11;98308.84;5093515;28;948;-75
2023/04/08 12:47:28;;;;;;;;;;;;;;;22.03;25.89;98301.63;5093722;28;937;-74
2023/04/08 12:49:53;;;;;;;;;;;;;;;22.01;25.97;98298.41;5094005;28;952;-74
2023/04/08 12:52:19;;;;;;;;;;;;;;;21.79;26.34;98298.13;5093746;28;994;-74
2023/04/08 12:54:45;;;;;;;;;;;;;;;21.57;26.48;98297.81;5076621;28;1913;-74